KVDI/VDI METAR and TAF weather

Enter ICAO airport designator
Station Type Date Time Source
KVDI METAR 2022/07/01 01:55 UTC NOAA

KVDI 010155Z AUTO 00000KT 10SM CLR 25/23 A3014 RMK AO2 LTG DSNT S AND SW


Station Type Date Time Source
KVDI Decoded METAR 2022/07/01 01:55 UTC NOAA

Vidalia, Vidalia Municipal Airport, GA, United States (KVDI) 32-11-33N 082-22-19W
Jun 30, 2022 - 09:55 PM EDT / 2022.07.01 0155 UTC
Wind: Calm:0
Visibility: 10 mile(s):0
Sky conditions: clear
Weather: Lightning observed
Temperature: 77 F (25 C)
Dew Point: 73 F (23 C)
Relative Humidity: 88%
Pressure (altimeter): 30.14 in. Hg (1020 hPa)
ob: KVDI 010155Z AUTO 00000KT 10SM CLR 25/23 A3014 RMK AO2 LTG DSNT S AND SW
cycle: 2

Station Type Date Time Source
KVDI TAF UTC NOAA

Error!

Example: see airport list